sensor_id;sensor_type;location;lat;lon;timestamp;pressure;altitude;pressure_sealevel;temperature;humidity
42511;BME280;28141;51.120;17.114;2023-04-22T00:02:42;101578.20;;;26.12;28.83
42511;BME280;28141;51.120;17.114;2023-04-22T00:06:20;101578.20;;;26.12;28.82
42511;BME280;28141;51.120;17.114;2023-04-22T00:09:34;101568.84;;;26.07;29.10
42511;BME280;28141;51.120;17.114;2023-04-22T00:12:48;101578.28;;;26.06;28.88
42511;BME280;28141;51.120;17.114;2023-04-22T00:16:04;101577.43;;;26.05;28.84
42511;BME280;28141;51.120;17.114;2023-04-22T00:19:42;101570.17;;;26.04;28.92
42511;BME280;28141;51.120;17.114;2023-04-22T00:22:56;101573.17;;;26.03;28.97
42511;BME280;28141;51.120;17.114;2023-04-22T00:26:10;101572.77;;;25.99;29.03
42511;BME280;28141;51.120;17.114;2023-04-22T00:29:25;101569.14;;;25.99;28.99
42511;BME280;28141;51.120;17.114;2023-04-22T00:33:04;101566.84;;;25.96;29.01
42511;BME280;28141;51.120;17.114;2023-04-22T00:36:18;101563.44;;;25.94;28.94
42511;BME280;28141;51.120;17.114;2023-04-22T00:39:32;101573.70;;;25.93;29.10
42511;BME280;28141;51.120;17.114;2023-04-22T00:42:49;101563.89;;;25.91;29.08
42511;BME280;28141;51.120;17.114;2023-04-22T00:46:27;101577.77;;;25.91;29.07
42511;BME280;28141;51.120;17.114;2023-04-22T00:49:42;101576.99;;;25.84;29.13
42511;BME280;28141;51.120;17.114;2023-04-22T00:52:56;101577.84;;;25.84;29.09
42511;BME280;28141;51.120;17.114;2023-04-22T00:56:10;101577.22;;;25.82;29.38
42511;BME280;28141;51.120;17.114;2023-04-22T00:59:50;101578.92;;;25.83;29.22
42511;BME280;28141;51.120;17.114;2023-04-22T01:03:05;101580.00;;;25.82;29.30
42511;BME280;28141;51.120;17.114;2023-04-22T01:06:19;101588.31;;;25.82;29.30
42511;BME280;28141;51.120;17.114;2023-04-22T01:09:35;101585.14;;;25.78;29.29
42511;BME280;28141;51.120;17.114;2023-04-22T01:13:14;101597.75;;;25.74;29.29
42511;BME280;28141;51.120;17.114;2023-04-22T01:16:29;101598.87;;;25.73;29.37
42511;BME280;28141;51.120;17.114;2023-04-22T01:19:48;101591.13;;;25.75;29.64
42511;BME280;28141;51.120;17.114;2023-04-22T01:23:02;101590.75;;;25.72;29.21
42511;BME280;28141;51.120;17.114;2023-04-22T01:26:47;101599.96;;;25.66;29.39
42511;BME280;28141;51.120;17.114;2023-04-22T01:30:02;101583.31;;;25.66;29.26
42511;BME280;28141;51.120;17.114;2023-04-22T01:33:17;101584.39;;;25.65;29.35
42511;BME280;28141;51.120;17.114;2023-04-22T01:36:31;101585.46;;;25.64;29.36
42511;BME280;28141;51.120;17.114;2023-04-22T01:40:12;101587.16;;;25.65;29.46
42511;BME280;28141;51.120;17.114;2023-04-22T01:43:35;101581.61;;;25.65;29.23
42511;BME280;28141;51.120;17.114;2023-04-22T01:46:49;101590.78;;;25.65;29.26
42511;BME280;28141;51.120;17.114;2023-04-22T01:50:28;101587.64;;;25.62;29.45
42511;BME280;28141;51.120;17.114;2023-04-22T01:53:42;101588.05;;;25.59;29.41
42511;BME280;28141;51.120;17.114;2023-04-22T01:56:57;101579.09;;;25.57;29.61
42511;BME280;28141;51.120;17.114;2023-04-22T02:00:12;101575.69;;;25.55;29.71
42511;BME280;28141;51.120;17.114;2023-04-22T02:03:51;101564.81;;;25.53;29.64
42511;BME280;28141;51.120;17.114;2023-04-22T02:07:05;101561.66;;;25.50;29.70
42511;BME280;28141;51.120;17.114;2023-04-22T02:10:19;101566.58;;;25.48;29.43
42511;BME280;28141;51.120;17.114;2023-04-22T02:13:35;101574.27;;;25.45;29.69
42511;BME280;28141;51.120;17.114;2023-04-22T02:17:14;101562.09;;;25.46;29.70
42511;BME280;28141;51.120;17.114;2023-04-22T02:20:30;101563.17;;;25.45;29.55
42511;BME280;28141;51.120;17.114;2023-04-22T02:23:44;101561.69;;;25.43;29.75
42511;BME280;28141;51.120;17.114;2023-04-22T02:26:58;101567.50;;;25.41;29.87
42511;BME280;28141;51.120;17.114;2023-04-22T02:30:38;101565.78;;;25.40;29.78
42511;BME280;28141;51.120;17.114;2023-04-22T02:33:52;101558.54;;;25.39;29.83
42511;BME280;28141;51.120;17.114;2023-04-22T02:37:06;101564.30;;;25.38;29.86
42511;BME280;28141;51.120;17.114;2023-04-22T02:40:20;101557.72;;;25.32;30.00
42511;BME280;28141;51.120;17.114;2023-04-22T02:43:58;101553.49;;;25.30;29.91
42511;BME280;28141;51.120;17.114;2023-04-22T02:47:12;101554.15;;;25.25;29.92
42511;BME280;28141;51.120;17.114;2023-04-22T02:50:26;101550.96;;;25.22;30.05
42511;BME280;28141;51.120;17.114;2023-04-22T02:53:40;101544.35;;;25.23;29.81
42511;BME280;28141;51.120;17.114;2023-04-22T02:57:18;101517.83;;;25.02;30.05
42511;BME280;28141;51.120;17.114;2023-04-22T03:00:34;101547.97;;;25.23;30.11
42511;BME280;28141;51.120;17.114;2023-04-22T03:03:48;101549.09;;;25.16;30.19
42511;BME280;28141;51.120;17.114;2023-04-22T03:07:02;101548.25;;;25.15;29.95
42511;BME280;28141;51.120;17.114;2023-04-22T03:10:42;101554.23;;;25.12;30.15
42511;BME280;28141;51.120;17.114;2023-04-22T03:13:56;101546.13;;;25.10;30.31
42511;BME280;28141;51.120;17.114;2023-04-22T03:17:10;101546.98;;;25.11;30.29
42511;BME280;28141;51.120;17.114;2023-04-22T03:20:24;101541.05;;;25.07;29.93
42511;BME280;28141;51.120;17.114;2023-04-22T03:24:02;101546.82;;;25.06;30.24
42511;BME280;28141;51.120;17.114;2023-04-22T03:27:16;101544.05;;;25.06;30.31
42511;BME280;28141;51.120;17.114;2023-04-22T03:30:30;101538.50;;;25.06;30.47
42511;BME280;28141;51.120;17.114;2023-04-22T03:33:44;101538.93;;;25.03;30.18
42511;BME280;28141;51.120;17.114;2023-04-22T03:37:22;101538.09;;;25.02;30.29
42511;BME280;28141;51.120;17.114;2023-04-22T03:40:36;101536.38;;;25.01;30.08
42511;BME280;28141;51.120;17.114;2023-04-22T03:43:50;101532.12;;;24.99;30.15
42511;BME280;28141;51.120;17.114;2023-04-22T03:47:04;101528.75;;;24.97;30.17
42511;BME280;28141;51.120;17.114;2023-04-22T03:50:42;101530.20;;;24.99;30.34
42511;BME280;28141;51.120;17.114;2023-04-22T03:53:56;101525.13;;;24.96;30.46
42511;BME280;28141;51.120;17.114;2023-04-22T03:57:10;101527.48;;;24.93;30.39
42511;BME280;28141;51.120;17.114;2023-04-22T04:00:24;101527.89;;;24.90;30.26
42511;BME280;28141;51.120;17.114;2023-04-22T04:04:03;101535.56;;;24.88;30.46
42511;BME280;28141;51.120;17.114;2023-04-22T04:07:18;101528.36;;;24.87;30.44
42511;BME280;28141;51.120;17.114;2023-04-22T04:10:32;101527.89;;;24.90;30.65
42511;BME280;28141;51.120;17.114;2023-04-22T04:13:46;101532.35;;;24.91;30.30
42511;BME280;28141;51.120;17.114;2023-04-22T04:17:24;101530.88;;;24.88;30.48
42511;BME280;28141;51.120;17.114;2023-04-22T04:20:38;101527.72;;;24.85;30.60
42511;BME280;28141;51.120;17.114;2023-04-22T04:23:52;101530.49;;;24.85;30.47
42511;BME280;28141;51.120;17.114;2023-04-22T04:27:06;101528.11;;;24.88;30.52
42511;BME280;28141;51.120;17.114;2023-04-22T04:30:45;101536.84;;;24.92;30.49
42511;BME280;28141;51.120;17.114;2023-04-22T04:34:00;101532.35;;;24.91;30.68
42511;BME280;28141;51.120;17.114;2023-04-22T04:37:14;101535.98;;;24.91;30.42
42511;BME280;28141;51.120;17.114;2023-04-22T04:40:29;101536.20;;;24.90;30.69
42511;BME280;28141;51.120;17.114;2023-04-22T04:44:09;101527.05;;;24.96;30.43
42511;BME280;28141;51.120;17.114;2023-04-22T04:47:24;101528.92;;;25.02;30.45
42511;BME280;28141;51.120;17.114;2023-04-22T04:50:38;101542.15;;;25.00;30.66
42511;BME280;28141;51.120;17.114;2023-04-22T04:53:52;101530.20;;;24.99;30.23
42511;BME280;28141;51.120;17.114;2023-04-22T04:57:30;101532.97;;;24.99;30.34
42511;BME280;28141;51.120;17.114;2023-04-22T05:00:44;101539.79;;;25.03;30.63
42511;BME280;28141;51.120;17.114;2023-04-22T05:03:58;101538.06;;;25.09;30.04
42511;BME280;28141;51.120;17.114;2023-04-22T05:07:12;101539.73;;;25.10;30.06
42511;BME280;28141;51.120;17.114;2023-04-22T05:10:50;101545.70;;;25.14;30.26
42511;BME280;28141;51.120;17.114;2023-04-22T05:14:04;101542.48;;;25.17;30.29
42511;BME280;28141;51.120;17.114;2023-04-22T05:17:18;101545.88;;;25.19;30.16
42511;BME280;28141;51.120;17.114;2023-04-22T05:20:33;101546.27;;;25.22;30.18
42511;BME280;28141;51.120;17.114;2023-04-22T05:24:11;101554.37;;;25.24;30.16
42511;BME280;28141;51.120;17.114;2023-04-22T05:27:25;101547.75;;;25.25;29.79
42511;BME280;28141;51.120;17.114;2023-04-22T05:30:39;101555.63;;;25.28;30.40
42511;BME280;28141;51.120;17.114;2023-04-22T05:33:53;101544.92;;;25.31;30.07
42511;BME280;28141;51.120;17.114;2023-04-22T05:37:31;101546.81;;;25.37;30.04
42511;BME280;28141;51.120;17.114;2023-04-22T05:40:45;101556.84;;;25.38;29.81
42511;BME280;28141;51.120;17.114;2023-04-22T05:43:59;101549.52;;;25.44;30.18
42511;BME280;28141;51.120;17.114;2023-04-22T05:47:13;101552.48;;;25.49;29.78
42511;BME280;28141;51.120;17.114;2023-04-22T05:50:51;101555.20;;;25.56;29.84
42511;BME280;28141;51.120;17.114;2023-04-22T05:54:06;101554.76;;;25.59;29.68
42511;BME280;28141;51.120;17.114;2023-04-22T05:57:20;101551.34;;;25.63;29.63
42511;BME280;28141;51.120;17.114;2023-04-22T06:00:34;101537.85;;;25.67;29.94
42511;BME280;28141;51.120;17.114;2023-04-22T06:04:12;101549.27;;;25.77;29.61
42511;BME280;28141;51.120;17.114;2023-04-22T06:07:26;101543.84;;;25.89;29.40
42511;BME280;28141;51.120;17.114;2023-04-22T06:10:40;101550.86;;;25.91;29.38
42511;BME280;28141;51.120;17.114;2023-04-22T06:13:54;101547.87;;;25.93;29.20
42511;BME280;28141;51.120;17.114;2023-04-22T06:17:32;101548.87;;;25.98;29.33
42511;BME280;28141;51.120;17.114;2023-04-22T06:20:46;101547.56;;;26.01;29.07
42511;BME280;28141;51.120;17.114;2023-04-22T06:24:00;101555.59;;;26.09;29.29
42511;BME280;28141;51.120;17.114;2023-04-22T06:27:14;101545.73;;;26.13;28.91
42511;BME280;28141;51.120;17.114;2023-04-22T06:30:52;101549.35;;;26.13;29.15
42511;BME280;28141;51.120;17.114;2023-04-22T06:34:06;101539.01;;;26.21;29.02
42511;BME280;28141;51.120;17.114;2023-04-22T06:37:20;101546.05;;;26.23;29.01
42511;BME280;28141;51.120;17.114;2023-04-22T06:40:34;101545.40;;;26.28;28.70
42511;BME280;28141;51.120;17.114;2023-04-22T06:44:12;101548.54;;;26.31;28.96
42511;BME280;28141;51.120;17.114;2023-04-22T06:47:26;101545.08;;;26.36;28.77
42511;BME280;28141;51.120;17.114;2023-04-22T06:50:40;101550.19;;;26.39;28.88
42511;BME280;28141;51.120;17.114;2023-04-22T06:53:54;101552.88;;;26.45;29.14
42511;BME280;28141;51.120;17.114;2023-04-22T06:57:35;101551.58;;;26.48;28.78
42511;BME280;28141;51.120;17.114;2023-04-22T07:00:49;101546.02;;;26.48;28.87
42511;BME280;28141;51.120;17.114;2023-04-22T07:04:03;101547.00;;;26.53;28.76
42511;BME280;28141;51.120;17.114;2023-04-22T07:07:17;101541.61;;;26.59;28.51
42511;BME280;28141;51.120;17.114;2023-04-22T07:10:56;101543.89;;;26.62;28.61
42511;BME280;28141;51.120;17.114;2023-04-22T07:14:10;101542.13;;;26.67;28.56
42511;BME280;28141;51.120;17.114;2023-04-22T07:17:24;101544.69;;;26.69;28.74
42511;BME280;28141;51.120;17.114;2023-04-22T07:20:38;101552.30;;;26.73;28.51
42511;BME280;28141;51.120;17.114;2023-04-22T07:24:16;101552.70;;;26.77;28.49
42511;BME280;28141;51.120;17.114;2023-04-22T07:27:30;101550.07;;;26.82;28.26
42511;BME280;28141;51.120;17.114;2023-04-22T07:30:44;101556.21;;;26.84;28.57
42511;BME280;28141;51.120;17.114;2023-04-22T07:33:58;101548.04;;;26.89;28.25
42511;BME280;28141;51.120;17.114;2023-04-22T07:37:37;101554.61;;;26.95;28.30
42511;BME280;28141;51.120;17.114;2023-04-22T07:40:51;101559.08;;;26.96;28.29
42511;BME280;28141;51.120;17.114;2023-04-22T07:44:05;101552.45;;;26.97;28.41
42511;BME280;28141;51.120;17.114;2023-04-22T07:47:19;101549.82;;;27.02;28.08
42511;BME280;28141;51.120;17.114;2023-04-22T07:50:58;101553.45;;;27.02;28.19
42511;BME280;28141;51.120;17.114;2023-04-22T07:54:12;101550.80;;;27.07;28.12
42511;BME280;28141;51.120;17.114;2023-04-22T07:57:26;101552.25;;;27.10;27.91
42511;BME280;28141;51.120;17.114;2023-04-22T08:00:40;101543.23;;;27.14;28.03
42511;BME280;28141;51.120;17.114;2023-04-22T08:04:22;101545.27;;;27.19;28.05
42511;BME280;28141;51.120;17.114;2023-04-22T08:07:36;101539.63;;;27.25;27.71
42511;BME280;28141;51.120;17.114;2023-04-22T08:10:50;101542.41;;;27.25;27.90
42511;BME280;28141;51.120;17.114;2023-04-22T08:14:03;101541.21;;;27.33;27.47
42511;BME280;28141;51.120;17.114;2023-04-22T08:17:43;101541.83;;;27.35;27.90
42511;BME280;28141;51.120;17.114;2023-04-22T08:20:57;101538.55;;;27.38;28.13
42511;BME280;28141;51.120;17.114;2023-04-22T08:24:11;101531.19;;;27.44;27.34
42511;BME280;28141;51.120;17.114;2023-04-22T08:27:25;101539.42;;;27.50;27.34
42511;BME280;28141;51.120;17.114;2023-04-22T08:31:05;101542.81;;;27.52;27.75
42511;BME280;28141;51.120;17.114;2023-04-22T08:34:22;101539.59;;;27.55;27.60
42511;BME280;28141;51.120;17.114;2023-04-22T08:37:40;101534.38;;;27.59;27.27
42511;BME280;28141;51.120;17.114;2023-04-22T08:40:55;101531.98;;;27.63;28.23
42511;BME280;28141;51.120;17.114;2023-04-22T08:44:38;101530.41;;;27.67;27.62
42511;BME280;28141;51.120;17.114;2023-04-22T08:47:53;101529.20;;;27.74;27.40
42511;BME280;28141;51.120;17.114;2023-04-22T08:51:07;101534.53;;;27.76;27.70
42511;BME280;28141;51.120;17.114;2023-04-22T08:54:22;101531.28;;;27.79;27.65
42511;BME280;28141;51.120;17.114;2023-04-22T08:58:03;101528.60;;;27.84;27.46
42511;BME280;28141;51.120;17.114;2023-04-22T09:01:19;101528.73;;;27.89;26.95
42511;BME280;28141;51.120;17.114;2023-04-22T09:04:34;101534.30;;;27.89;27.36
42511;BME280;28141;51.120;17.114;2023-04-22T09:07:48;101527.13;;;27.93;26.92
42511;BME280;28141;51.120;17.114;2023-04-22T09:11:32;101531.38;;;27.95;27.33
42511;BME280;28141;51.120;17.114;2023-04-22T09:14:46;101536.23;;;28.00;27.64
42511;BME280;28141;51.120;17.114;2023-04-22T09:18:02;101524.82;;;28.02;26.99
42511;BME280;28141;51.120;17.114;2023-04-22T09:21:18;101527.51;;;28.08;27.40
42511;BME280;28141;51.120;17.114;2023-04-22T09:24:58;101527.88;;;28.12;27.17
42511;BME280;28141;51.120;17.114;2023-04-22T09:28:17;101522.64;;;28.15;27.16
42511;BME280;28141;51.120;17.114;2023-04-22T09:31:31;101524.73;;;28.20;27.12
42511;BME280;28141;51.120;17.114;2023-04-22T09:34:50;101525.35;;;28.22;27.01
42511;BME280;28141;51.120;17.114;2023-04-22T09:38:31;101516.48;;;28.25;27.00
42511;BME280;28141;51.120;17.114;2023-04-22T09:41:52;101520.00;;;28.32;27.03
42511;BME280;28141;51.120;17.114;2023-04-22T09:45:09;101499.98;;;28.35;27.30
42511;BME280;28141;51.120;17.114;2023-04-22T09:48:23;101507.01;;;28.38;27.15
42511;BME280;28141;51.120;17.114;2023-04-22T09:52:03;101503.73;;;28.41;26.84
42511;BME280;28141;51.120;17.114;2023-04-22T09:55:18;101500.46;;;28.44;26.93
42511;BME280;28141;51.120;17.114;2023-04-22T09:58:38;101493.16;;;28.54;26.48
42511;BME280;28141;51.120;17.114;2023-04-22T10:01:58;101504.65;;;28.58;26.41
42511;BME280;28141;51.120;17.114;2023-04-22T10:05:39;101498.34;;;28.62;26.64
42511;BME280;28141;51.120;17.114;2023-04-22T10:08:54;101495.91;;;28.66;26.62
42511;BME280;28141;51.120;17.114;2023-04-22T10:12:09;101497.57;;;28.67;27.08
42511;BME280;28141;51.120;17.114;2023-04-22T10:15:24;101494.91;;;28.72;26.49
42511;BME280;28141;51.120;17.114;2023-04-22T10:21:18;101497.91;;;28.82;26.30
42511;BME280;28141;51.120;17.114;2023-04-22T10:24:35;101486.88;;;28.87;26.11
42511;BME280;28141;51.120;17.114;2023-04-22T10:28:02;101491.34;;;28.88;26.32
42511;BME280;28141;51.120;17.114;2023-04-22T10:31:53;101486.88;;;28.87;26.36
42511;BME280;28141;51.120;17.114;2023-04-22T10:35:11;101475.80;;;28.92;26.49
42511;BME280;28141;51.120;17.114;2023-04-22T10:38:26;101477.25;;;28.95;25.75
42511;BME280;28141;51.120;17.114;2023-04-22T10:42:11;101479.27;;;28.99;26.13
42511;BME280;28141;51.120;17.114;2023-04-22T10:45:27;101475.73;;;29.04;25.96
42511;BME280;28141;51.120;17.114;2023-04-22T10:48:49;101476.10;;;29.08;26.52
42511;BME280;28141;51.120;17.114;2023-04-22T10:52:29;101474.72;;;29.10;26.06
42511;BME280;28141;51.120;17.114;2023-04-22T10:55:50;101469.84;;;29.17;26.02
42511;BME280;28141;51.120;17.114;2023-04-22T11:03:08;101464.01;;;29.19;26.09
42511;BME280;28141;51.120;17.114;2023-04-22T11:06:23;101454.96;;;29.28;25.94
42511;BME280;28141;51.120;17.114;2023-04-22T11:09:48;101449.20;;;29.35;25.68
42511;BME280;28141;51.120;17.114;2023-04-22T11:13:29;101444.85;;;29.39;25.75
42511;BME280;28141;51.120;17.114;2023-04-22T11:16:46;101440.43;;;29.43;25.33
42511;BME280;28141;51.120;17.114;2023-04-22T11:20:01;101443.32;;;29.48;25.19
42511;BME280;28141;51.120;17.114;2023-04-22T11:23:25;101430.95;;;29.61;26.17
42511;BME280;28141;51.120;17.114;2023-04-22T11:27:05;101432.96;;;29.65;25.68
42511;BME280;28141;51.120;17.114;2023-04-22T11:30:24;101431.95;;;29.71;25.58
42511;BME280;28141;51.120;17.114;2023-04-22T11:33:38;101432.69;;;29.84;25.40
42511;BME280;28141;51.120;17.114;2023-04-22T11:36:52;101423.52;;;29.88;25.94
42511;BME280;28141;51.120;17.114;2023-04-22T11:40:35;101433.92;;;29.93;25.38
42511;BME280;28141;51.120;17.114;2023-04-22T11:43:49;101411.16;;;30.01;25.91
42511;BME280;28141;51.120;17.114;2023-04-22T11:47:03;101408.15;;;30.07;24.87
42511;BME280;28141;51.120;17.114;2023-04-22T11:50:21;101403.23;;;30.15;25.66
42511;BME280;28141;51.120;17.114;2023-04-22T11:54:02;101413.69;;;30.24;24.99
42511;BME280;28141;51.120;17.114;2023-04-22T11:57:16;101402.63;;;30.34;24.91
42511;BME280;28141;51.120;17.114;2023-04-22T12:00:36;101403.59;;;30.45;24.28
42511;BME280;28141;51.120;17.114;2023-04-22T12:03:58;101409.91;;;30.57;25.33
42511;BME280;28141;51.120;17.114;2023-04-22T12:07:39;101404.16;;;30.69;24.83
42511;BME280;28141;51.120;17.114;2023-04-22T12:10:56;101407.38;;;30.82;24.88
42511;BME280;28141;51.120;17.114;2023-04-22T12:14:11;101401.58;;;30.94;24.83
42511;BME280;28141;51.120;17.114;2023-04-22T12:17:25;101397.76;;;31.05;24.72
42511;BME280;28141;51.120;17.114;2023-04-22T12:20:40;101392.27;;;31.15;24.40
42511;BME280;28141;51.120;17.114;2023-04-22T12:23:57;101399.64;;;31.27;24.38
42511;BME280;28141;51.120;17.114;2023-04-22T12:27:43;101396.91;;;31.37;24.26
42511;BME280;28141;51.120;17.114;2023-04-22T12:30:57;101390.27;;;31.48;23.81
42511;BME280;28141;51.120;17.114;2023-04-22T12:34:11;101381.13;;;31.63;24.27
42511;BME280;28141;51.120;17.114;2023-04-22T12:37:25;101392.73;;;31.76;24.09
42511;BME280;28141;51.120;17.114;2023-04-22T12:41:06;101386.92;;;31.93;23.81
42511;BME280;28141;51.120;17.114;2023-04-22T12:44:20;101378.31;;;32.10;23.76
42511;BME280;28141;51.120;17.114;2023-04-22T12:47:35;101373.36;;;32.22;23.81
42511;BME280;28141;51.120;17.114;2023-04-22T12:50:49;101366.09;;;32.36;23.51
42511;BME280;28141;51.120;17.114;2023-04-22T12:54:28;101354.63;;;32.53;23.42
42511;BME280;28141;51.120;17.114;2023-04-22T12:57:44;101344.52;;;32.67;23.66
42511;BME280;28141;51.120;17.114;2023-04-22T13:00:59;101346.84;;;32.85;23.15
42511;BME280;28141;51.120;17.114;2023-04-22T13:04:13;101344.29;;;32.99;23.41
42511;BME280;28141;51.120;17.114;2023-04-22T13:07:53;101342.59;;;33.13;23.17
42511;BME280;28141;51.120;17.114;2023-04-22T13:11:07;101330.82;;;33.26;22.64
42511;BME280;28141;51.120;17.114;2023-04-22T13:14:21;101326.30;;;33.41;22.83
42511;BME280;28141;51.120;17.114;2023-04-22T13:17:36;101316.13;;;33.55;23.06
42511;BME280;28141;51.120;17.114;2023-04-22T13:21:16;101326.48;;;33.69;22.78
42511;BME280;28141;51.120;17.114;2023-04-22T13:24:30;101312.70;;;33.83;22.48
42511;BME280;28141;51.120;17.114;2023-04-22T13:27:44;101318.23;;;33.98;22.22
42511;BME280;28141;51.120;17.114;2023-04-22T13:30:58;101316.47;;;34.13;22.38
42511;BME280;28141;51.120;17.114;2023-04-22T13:34:38;101314.98;;;34.30;22.38
42511;BME280;28141;51.120;17.114;2023-04-22T13:37:52;101308.97;;;34.47;22.17
42511;BME280;28141;51.120;17.114;2023-04-22T13:41:06;101309.14;;;34.61;22.19
42511;BME280;28141;51.120;17.114;2023-04-22T13:44:20;101310.17;;;34.75;22.16
42511;BME280;28141;51.120;17.114;2023-04-22T13:48:00;101309.75;;;34.92;21.95
42511;BME280;28141;51.120;17.114;2023-04-22T13:51:14;101307.91;;;35.06;21.47
42511;BME280;28141;51.120;17.114;2023-04-22T13:54:28;101304.95;;;35.21;22.01
42511;BME280;28141;51.120;17.114;2023-04-22T13:57:43;101303.98;;;35.36;21.71
42511;BME280;28141;51.120;17.114;2023-04-22T14:01:24;101298.98;;;35.52;21.50
42511;BME280;28141;51.120;17.114;2023-04-22T14:04:38;101291.50;;;35.66;21.29
42511;BME280;28141;51.120;17.114;2023-04-22T14:07:53;101286.84;;;35.80;20.87
42511;BME280;28141;51.120;17.114;2023-04-22T14:11:07;101290.58;;;35.94;21.18
42511;BME280;28141;51.120;17.114;2023-04-22T14:14:48;101296.02;;;36.09;21.06
42511;BME280;28141;51.120;17.114;2023-04-22T14:18:02;101289.32;;;36.24;20.64
42511;BME280;28141;51.120;17.114;2023-04-22T14:21:15;101282.07;;;36.37;20.54
42511;BME280;28141;51.120;17.114;2023-04-22T14:24:31;101274.52;;;36.51;21.16
42511;BME280;28141;51.120;17.114;2023-04-22T14:28:15;101281.05;;;36.65;20.67
42511;BME280;28141;51.120;17.114;2023-04-22T14:31:29;101274.63;;;36.78;20.78
42511;BME280;28141;51.120;17.114;2023-04-22T14:34:43;101259.93;;;36.95;20.14
42511;BME280;28141;51.120;17.114;2023-04-22T14:37:58;101262.44;;;37.10;20.63
42511;BME280;28141;51.120;17.114;2023-04-22T14:41:41;101276.23;;;37.31;20.19
42511;BME280;28141;51.120;17.114;2023-04-22T14:44:55;101265.02;;;37.39;20.22
42511;BME280;28141;51.120;17.114;2023-04-22T14:48:09;101265.03;;;37.53;20.00
42511;BME280;28141;51.120;17.114;2023-04-22T14:51:23;101261.18;;;37.62;19.73
42511;BME280;28141;51.120;17.114;2023-04-22T14:55:03;101254.65;;;37.76;19.82
42511;BME280;28141;51.120;17.114;2023-04-22T14:58:19;101256.52;;;37.94;19.57
42511;BME280;28141;51.120;17.114;2023-04-22T15:01:34;101253.34;;;38.09;19.71
42511;BME280;28141;51.120;17.114;2023-04-22T15:05:21;101255.82;;;38.24;19.52
42511;BME280;28141;51.120;17.114;2023-04-22T15:08:35;101242.45;;;38.39;19.41
42511;BME280;28141;51.120;17.114;2023-04-22T15:11:50;101236.21;;;38.50;19.34
42511;BME280;28141;51.120;17.114;2023-04-22T15:15:05;101239.30;;;38.62;19.10
42511;BME280;28141;51.120;17.114;2023-04-22T15:18:43;101237.95;;;38.82;19.08
42511;BME280;28141;51.120;17.114;2023-04-22T15:21:57;101227.17;;;38.93;19.01
42511;BME280;28141;51.120;17.114;2023-04-22T15:25:11;101228.23;;;39.05;18.85
42511;BME280;28141;51.120;17.114;2023-04-22T15:28:25;101230.65;;;39.21;18.83
42511;BME280;28141;51.120;17.114;2023-04-22T15:32:04;101230.87;;;39.33;18.76
42511;BME280;28141;51.120;17.114;2023-04-22T15:35:20;101231.62;;;39.56;18.51
42511;BME280;28141;51.120;17.114;2023-04-22T15:38:34;101236.33;;;39.69;18.46
42511;BME280;28141;51.120;17.114;2023-04-22T15:41:51;101225.22;;;39.90;18.46
42511;BME280;28141;51.120;17.114;2023-04-22T15:45:34;101223.87;;;40.13;18.25
42511;BME280;28141;51.120;17.114;2023-04-22T15:48:48;101222.56;;;40.28;18.33
42511;BME280;28141;51.120;17.114;2023-04-22T15:52:02;101221.72;;;40.44;18.17
42511;BME280;28141;51.120;17.114;2023-04-22T15:55:16;101221.34;;;40.63;17.97
42511;BME280;28141;51.120;17.114;2023-04-22T15:58:30;101213.99;;;40.71;17.75
42511;BME280;28141;51.120;17.114;2023-04-22T16:02:13;101216.67;;;40.76;17.75
42511;BME280;28141;51.120;17.114;2023-04-22T16:05:27;101209.62;;;40.82;17.66
42511;BME280;28141;51.120;17.114;2023-04-22T16:08:43;101204.73;;;40.91;17.63
42511;BME280;28141;51.120;17.114;2023-04-22T16:11:57;101197.20;;;40.95;17.69
42511;BME280;28141;51.120;17.114;2023-04-22T16:15:12;101200.55;;;40.97;17.59
42511;BME280;28141;51.120;17.114;2023-04-22T16:18:55;101204.36;;;41.01;17.60
42511;BME280;28141;51.120;17.114;2023-04-22T16:22:08;101195.83;;;41.01;17.62
42511;BME280;28141;51.120;17.114;2023-04-22T16:25:23;101195.49;;;41.03;17.49
42511;BME280;28141;51.120;17.114;2023-04-22T16:28:37;101193.49;;;41.03;17.33
42511;BME280;28141;51.120;17.114;2023-04-22T16:31:51;101181.16;;;40.99;17.65
42511;BME280;28141;51.120;17.114;2023-04-22T16:35:34;101188.48;;;41.00;17.58
42511;BME280;28141;51.120;17.114;2023-04-22T16:38:48;101176.64;;;40.98;17.53
42511;BME280;28141;51.120;17.114;2023-04-22T16:42:02;101174.48;;;40.95;17.76
42511;BME280;28141;51.120;17.114;2023-04-22T16:45:16;101179.16;;;40.91;17.68
42511;BME280;28141;51.120;17.114;2023-04-22T16:48:30;101184.55;;;40.84;17.77
42511;BME280;28141;51.120;17.114;2023-04-22T16:52:12;101184.25;;;40.77;17.71
42511;BME280;28141;51.120;17.114;2023-04-22T16:55:26;101176.73;;;40.72;17.56
42511;BME280;28141;51.120;17.114;2023-04-22T16:58:40;101177.91;;;40.63;17.72
42511;BME280;28141;51.120;17.114;2023-04-22T17:01:54;101166.91;;;40.53;17.82
42511;BME280;28141;51.120;17.114;2023-04-22T17:05:08;101169.27;;;40.42;17.85
42511;BME280;28141;51.120;17.114;2023-04-22T17:08:54;101172.30;;;40.28;17.96
42511;BME280;28141;51.120;17.114;2023-04-22T17:12:08;101167.60;;;40.15;17.92
42511;BME280;28141;51.120;17.114;2023-04-22T17:15:22;101179.30;;;40.05;18.09
42511;BME280;28141;51.120;17.114;2023-04-22T17:18:36;101163.13;;;39.88;18.20
42511;BME280;28141;51.120;17.114;2023-04-22T17:21:50;101165.58;;;39.72;18.34
42511;BME280;28141;51.120;17.114;2023-04-22T17:25:29;101166.73;;;39.54;18.37